Laughlin Air Force Base
KDLF : now visible

Airfield :











YOU CAN JOIN US ON...

 
LOGIN :

Register | Disclaimer

   EN    FR    IT 

 









Legend :    VFR   Marginal VFR   IFR   Intensive IFR   Very Intensive IFR
Visi :
Ceiling :
>= 8 km
>= 3000ft
5 to 8 km
1000 to 3000 ft
1500m to 5 km
500 to 1000 ft
800 to 1500m
200 to 500 ft
< 800m
< 200 ft
Symbols :   Thunderstorms  Fog  Heavy snow  Heavy precipitations  Wind > 20 kt






- Airport Elevation : 1082 ft


KDLF - Laughlin Air Force Base

CURRENT METAR :
  • 041547Z 32006KT 7SM RA BR BKN005 OVC022 12/11 A3004 RMK AO2A TS 19NE MOV E AO2A CIG 005 RWY13 SLP171 $

EXPIRED METARs :
  • 041516Z 34008KT 3SM RA BR BKN006 BKN013 OVC025 11/10 A3002 RMK AO2A TS B1412 TS10 NE MOV NE CIG 014V025 CIG 004 RWY13 SLP164 $
  • 041505Z COR 35008KT 2SM +RA VCTS BKN006 BKN014 11/10 A3002 RMK AO2A TSB1412 TS 9NE MOV E CIG 004 RWY13 SLP164 $ COR 1511
  • 041456Z 32010KT 2SM -RA VCTS BKN006 BKN013 OVC021 11/10 A3002 RMK AO2A TSB1412 TS 8N MOV E CIG 006 RWY13 SLP164 P0015 60020 T01100099 53019 $
  • 041444Z 34007KT 3SM +RA BR BKN006 OVC016 11/10 A3001 RMK AO2A TSB1412 TS 15NE MOV NE CIG 006 RWY13 SLP161 $
  • 041436Z 34011KT 2SM +RA BR BKN006 OVC015 11/10 A3000 RMK AO2A TSB1412 TS 15NE MOV E CIG 003V015 CIG 007 RWY13 SLP157 $
  • 041426Z 35007KT 2 3/4SM +RA VCTS BKN003 OVC008 11/10 A3000 RMK AO2A TSB1412 TS 14E MOV E VIS 2 3/4V10 CIG 003V006 SLP157 $
  • 041419Z 34008KT 2SM +RA VCTS BKN006 OVC010 11/10 A3000 RMK AO2A TSB12 TS 13E MOV NE VIS 2 RWY31 BKN V OVC SLP157 $
  • 041409Z 35009KT 3SM -RA VCTS OVC006 11/10 A3000 RMK AO2A TSB12 TS 12E MOV E SLP157 $
  • 041356Z 31007KT 5SM -RA OVC005 11/10 A3000 RMK AO2A SLP157 P0004 T01130104 $
  • 041320Z 32005KT 5SM -RA BKN006 BKN013 OVC024 11/10 A2999 RMK AO2A CIG 006V014 BKN006 V SCT SLP153 $
  • 041306Z 34005KT 3SM RA BKN006 BKN014 OVC025 11/10 A2998 RMK AO2A CIG 014V025 BKN V SCT SLP150 $
  • 041256Z 01007KT 3SM RA BKN006 BKN012 OVC025 11/10 A2997 RMK AO2A DZE11RAB11E22DZB22E37RAB37 CIG 011V025 CIG 024 RWY31 SLP146 P0001 T01080099 $

TAF AMD TAF KDLF
Valid from the 04 at 14:00 until the 05 at 19:00 UTC


041447Z 0414/0519 36009KT 8000 -SHRA VCSH BKN006 BKN016 520028 QNH2997INS
TEMPO 0414/0417 VRB20G25KT 4800 -TSRA BKN012CB
BECMG 0416/0417 35009KT 8000 -SHRA BKN008 520058 QNH3003INS
BECMG 0417/0418 02009KT 8000 -SHRA SCT008 BKN012 510054 QNH2995INS
BECMG 0420/0421 01006KT 8000 -SHRA BKN015 QNH2994INS
BECMG 0423/0500 02006KT 9000 VCSH BKN007 QNH2995INS
BECMG 0514/0515 14006KT 8000 BR BKN007 BKN015 QNH3000INS TX15/0421Z TN11/0414Z



MET'MAP, your aeronautical weather chart ! - Copyright ORBIFLY December 2007 - Disclaimer

ORBIFLY MET'MAP TEAM :

Programming & Development : Alexandra Zaïnal
Concept & original design : Baudouin d'Aumeries
Assistance for programming : Marc-Olivier Méhu
Technical & hardware support : Manuel Goepfert

Contact : metmap@orbifly.com




SOURCES & CREDITS :

   NOAA       Earth
Advisory